sensor_id;sensor_type;location;lat;lon;timestamp;pressure;altitude;pressure_sealevel;temperature;humidity
57847;BME280;43675;50.030;21.952;2022-10-16T00:00:43;99044.48;;;11.13;74.06
57847;BME280;43675;50.030;21.952;2022-10-16T00:03:11;99042.09;;;11.14;74.07
57847;BME280;43675;50.030;21.952;2022-10-16T00:05:43;99043.44;;;11.14;74.11
57847;BME280;43675;50.030;21.952;2022-10-16T00:08:11;99043.44;;;11.14;74.09
57847;BME280;43675;50.030;21.952;2022-10-16T00:10:37;99040.97;;;11.13;74.12
57847;BME280;43675;50.030;21.952;2022-10-16T00:13:04;99039.31;;;11.12;74.16
57847;BME280;43675;50.030;21.952;2022-10-16T00:15:32;99036.62;;;11.12;74.23
57847;BME280;43675;50.030;21.952;2022-10-16T00:17:58;99041.27;;;11.14;74.24
57847;BME280;43675;50.030;21.952;2022-10-16T00:20:23;99039.91;;;11.14;74.29
57847;BME280;43675;50.030;21.952;2022-10-16T00:22:56;99043.75;;;11.15;74.29
57847;BME280;43675;50.030;21.952;2022-10-16T00:25:22;99043.00;;;11.17;74.34
57847;BME280;43675;50.030;21.952;2022-10-16T00:27:54;99045.30;;;11.20;74.39
57847;BME280;43675;50.030;21.952;2022-10-16T00:30:20;99048.70;;;11.25;74.37
57847;BME280;43675;50.030;21.952;2022-10-16T00:32:45;99051.56;;;11.30;74.32
57847;BME280;43675;50.030;21.952;2022-10-16T00:35:11;99049.59;;;11.34;74.28
57847;BME280;43675;50.030;21.952;2022-10-16T00:37:37;99055.49;;;11.41;74.22
57847;BME280;43675;50.030;21.952;2022-10-16T00:40:02;99059.18;;;11.46;74.13
57847;BME280;43675;50.030;21.952;2022-10-16T00:42:28;99057.20;;;11.51;74.03
57847;BME280;43675;50.030;21.952;2022-10-16T00:44:56;99057.41;;;11.56;73.96
57847;BME280;43675;50.030;21.952;2022-10-16T00:47:27;99062.16;;;11.60;73.89
57847;BME280;43675;50.030;21.952;2022-10-16T00:52:48;99065.13;;;11.68;73.75
57847;BME280;43675;50.030;21.952;2022-10-16T00:55:15;99073.80;;;11.70;73.71
57847;BME280;43675;50.030;21.952;2022-10-16T00:57:41;99074.54;;;11.74;73.58
57847;BME280;43675;50.030;21.952;2022-10-16T01:00:17;99083.83;;;11.78;73.46
57847;BME280;43675;50.030;21.952;2022-10-16T01:02:43;99078.02;;;11.81;73.35
57847;BME280;43675;50.030;21.952;2022-10-16T01:05:09;99082.89;;;11.82;73.23
57847;BME280;43675;50.030;21.952;2022-10-16T01:10:40;99083.32;;;11.79;73.07
57847;BME280;43675;50.030;21.952;2022-10-16T01:13:12;99083.52;;;11.71;73.13
57847;BME280;43675;50.030;21.952;2022-10-16T01:16:05;99081.77;;;11.61;73.19
57847;BME280;43675;50.030;21.952;2022-10-16T01:18:47;99089.86;;;11.54;73.28
57847;BME280;43675;50.030;21.952;2022-10-16T01:21:22;99084.52;;;11.48;73.36
57847;BME280;43675;50.030;21.952;2022-10-16T01:23:55;99087.73;;;11.41;73.43
57847;BME280;43675;50.030;21.952;2022-10-16T01:31:29;99086.81;;;11.31;73.63
57847;BME280;43675;50.030;21.952;2022-10-16T01:34:05;99079.17;;;11.28;73.70
57847;BME280;43675;50.030;21.952;2022-10-16T01:36:37;99087.44;;;11.26;73.71
57847;BME280;43675;50.030;21.952;2022-10-16T01:39:01;99093.55;;;11.24;73.77
57847;BME280;43675;50.030;21.952;2022-10-16T01:41:43;99092.09;;;11.22;73.78
57847;BME280;43675;50.030;21.952;2022-10-16T01:44:29;99093.34;;;11.19;73.80
57847;BME280;43675;50.030;21.952;2022-10-16T01:46:55;99096.96;;;11.16;73.89
57847;BME280;43675;50.030;21.952;2022-10-16T01:49:24;99095.09;;;11.10;74.00
57847;BME280;43675;50.030;21.952;2022-10-16T01:51:54;99094.89;;;11.11;74.03
57847;BME280;43675;50.030;21.952;2022-10-16T01:54:23;99098.41;;;11.12;74.12
57847;BME280;43675;50.030;21.952;2022-10-16T01:56:50;99090.34;;;11.12;74.16
57847;BME280;43675;50.030;21.952;2022-10-16T01:59:19;99095.11;;;11.16;74.19
57847;BME280;43675;50.030;21.952;2022-10-16T02:01:55;99098.52;;;11.21;74.17
57847;BME280;43675;50.030;21.952;2022-10-16T02:04:34;99095.49;;;11.26;74.10
57847;BME280;43675;50.030;21.952;2022-10-16T02:06:57;99093.02;;;11.31;74.09
57847;BME280;43675;50.030;21.952;2022-10-16T02:09:23;99093.00;;;11.38;74.01
57847;BME280;43675;50.030;21.952;2022-10-16T02:11:52;99094.13;;;11.46;73.88
57847;BME280;43675;50.030;21.952;2022-10-16T02:14:25;99092.98;;;11.51;73.72
57847;BME280;43675;50.030;21.952;2022-10-16T02:16:51;99098.45;;;11.54;73.58
57847;BME280;43675;50.030;21.952;2022-10-16T02:19:18;99098.84;;;11.57;73.48
57847;BME280;43675;50.030;21.952;2022-10-16T02:21:56;99102.68;;;11.59;73.38
57847;BME280;43675;50.030;21.952;2022-10-16T02:29:59;99098.45;;;11.54;73.31
57847;BME280;43675;50.030;21.952;2022-10-16T02:32:23;99108.17;;;11.55;73.28
57847;BME280;43675;50.030;21.952;2022-10-16T02:34:50;99112.72;;;11.54;73.26
57847;BME280;43675;50.030;21.952;2022-10-16T02:37:17;99113.86;;;11.56;73.24
57847;BME280;43675;50.030;21.952;2022-10-16T02:39:43;99112.28;;;11.57;73.23
57847;BME280;43675;50.030;21.952;2022-10-16T02:42:12;99120.75;;;11.61;73.23
57847;BME280;43675;50.030;21.952;2022-10-16T02:44:45;99115.58;;;11.66;73.17
57847;BME280;43675;50.030;21.952;2022-10-16T02:47:10;99115.07;;;11.73;73.08
57847;BME280;43675;50.030;21.952;2022-10-16T02:49:36;99112.39;;;11.79;72.98
57847;BME280;43675;50.030;21.952;2022-10-16T02:52:01;99106.89;;;11.83;72.82
57847;BME280;43675;50.030;21.952;2022-10-16T02:54:27;99106.86;;;11.90;72.67
57847;BME280;43675;50.030;21.952;2022-10-16T02:56:53;99105.71;;;11.95;72.54
57847;BME280;43675;50.030;21.952;2022-10-16T02:59:18;99100.22;;;11.99;72.45
57847;BME280;43675;50.030;21.952;2022-10-16T03:01:44;99106.82;;;12.03;72.34
57847;BME280;43675;50.030;21.952;2022-10-16T03:04:10;99106.70;;;12.07;72.28
57847;BME280;43675;50.030;21.952;2022-10-16T03:06:35;99106.34;;;12.13;72.21
57847;BME280;43675;50.030;21.952;2022-10-16T03:09:01;99099.58;;;12.19;72.10
57847;BME280;43675;50.030;21.952;2022-10-16T03:11:26;99103.92;;;12.27;71.97
57847;BME280;43675;50.030;21.952;2022-10-16T03:13:59;99107.91;;;12.33;71.84
57847;BME280;43675;50.030;21.952;2022-10-16T03:16:30;99108.90;;;12.39;71.69
57847;BME280;43675;50.030;21.952;2022-10-16T03:18:56;99117.47;;;12.45;71.55
57847;BME280;43675;50.030;21.952;2022-10-16T03:21:22;99119.52;;;12.50;71.42
57847;BME280;43675;50.030;21.952;2022-10-16T03:23:47;99116.27;;;12.57;71.27
57847;BME280;43675;50.030;21.952;2022-10-16T03:26:13;99119.42;;;12.63;71.14
57847;BME280;43675;50.030;21.952;2022-10-16T03:28:38;99118.89;;;12.70;70.99
57847;BME280;43675;50.030;21.952;2022-10-16T03:31:11;99123.91;;;12.75;70.84
57847;BME280;43675;50.030;21.952;2022-10-16T03:33:37;99130.06;;;12.83;70.68
57847;BME280;43675;50.030;21.952;2022-10-16T03:36:03;99128.31;;;12.86;70.55
57847;BME280;43675;50.030;21.952;2022-10-16T03:38:29;99123.07;;;12.91;70.42
57847;BME280;43675;50.030;21.952;2022-10-16T03:40:54;99127.80;;;12.95;70.26
57847;BME280;43675;50.030;21.952;2022-10-16T03:43:20;99123.11;;;13.00;70.08
57847;BME280;43675;50.030;21.952;2022-10-16T03:45:45;99124.92;;;13.06;69.96
57847;BME280;43675;50.030;21.952;2022-10-16T03:48:11;99125.02;;;13.08;69.87
57847;BME280;43675;50.030;21.952;2022-10-16T03:50:37;99124.09;;;13.12;69.75
57847;BME280;43675;50.030;21.952;2022-10-16T03:53:03;99129.86;;;13.15;69.62
57847;BME280;43675;50.030;21.952;2022-10-16T03:55:29;99126.41;;;13.17;69.47
57847;BME280;43675;50.030;21.952;2022-10-16T03:57:54;99127.86;;;13.20;69.34
57847;BME280;43675;50.030;21.952;2022-10-16T04:00:20;99132.28;;;13.23;69.23
57847;BME280;43675;50.030;21.952;2022-10-16T04:02:45;99132.87;;;13.25;69.12
57847;BME280;43675;50.030;21.952;2022-10-16T04:05:11;99139.72;;;13.28;69.01
57847;BME280;43675;50.030;21.952;2022-10-16T04:07:37;99146.52;;;13.31;68.92
57847;BME280;43675;50.030;21.952;2022-10-16T04:10:03;99148.77;;;13.34;68.81
57847;BME280;43675;50.030;21.952;2022-10-16T04:12:29;99142.65;;;13.36;68.73
57847;BME280;43675;50.030;21.952;2022-10-16T04:15:01;99153.20;;;13.37;68.62
57847;BME280;43675;50.030;21.952;2022-10-16T04:17:27;99149.16;;;13.37;68.55
57847;BME280;43675;50.030;21.952;2022-10-16T04:19:53;99150.81;;;13.38;68.45
57847;BME280;43675;50.030;21.952;2022-10-16T04:22:18;99151.43;;;13.40;68.32
57847;BME280;43675;50.030;21.952;2022-10-16T04:24:44;99146.25;;;13.39;68.23
57847;BME280;43675;50.030;21.952;2022-10-16T04:27:10;99152.09;;;13.36;68.20
57847;BME280;43675;50.030;21.952;2022-10-16T04:29:35;99154.68;;;13.33;68.21
57847;BME280;43675;50.030;21.952;2022-10-16T04:32:08;99155.75;;;13.32;68.22
57847;BME280;43675;50.030;21.952;2022-10-16T04:34:34;99154.09;;;13.31;68.23
57847;BME280;43675;50.030;21.952;2022-10-16T04:37:00;99149.53;;;13.32;68.25
57847;BME280;43675;50.030;21.952;2022-10-16T04:39:26;99154.16;;;13.34;68.18
57847;BME280;43675;50.030;21.952;2022-10-16T04:41:51;99153.75;;;13.37;68.10
57847;BME280;43675;50.030;21.952;2022-10-16T04:44:17;99161.91;;;13.39;68.07
57847;BME280;43675;50.030;21.952;2022-10-16T04:46:42;99164.16;;;13.42;67.97
57847;BME280;43675;50.030;21.952;2022-10-16T04:49:14;99165.81;;;13.43;67.92
57847;BME280;43675;50.030;21.952;2022-10-16T04:51:40;99163.19;;;13.46;67.85
57847;BME280;43675;50.030;21.952;2022-10-16T04:54:06;99164.33;;;13.47;67.76
57847;BME280;43675;50.030;21.952;2022-10-16T04:56:31;99168.13;;;13.49;67.68
57847;BME280;43675;50.030;21.952;2022-10-16T04:58:57;99168.23;;;13.51;67.61
57847;BME280;43675;50.030;21.952;2022-10-16T05:01:22;99170.16;;;13.53;67.53
57847;BME280;43675;50.030;21.952;2022-10-16T05:03:48;99177.53;;;13.55;67.43
57847;BME280;43675;50.030;21.952;2022-10-16T05:06:14;99176.77;;;13.57;67.37
57847;BME280;43675;50.030;21.952;2022-10-16T05:08:39;99181.71;;;13.60;67.31
57847;BME280;43675;50.030;21.952;2022-10-16T05:11:05;99185.86;;;13.63;67.23
57847;BME280;43675;50.030;21.952;2022-10-16T05:13:37;99187.06;;;13.67;67.18
57847;BME280;43675;50.030;21.952;2022-10-16T05:16:02;99185.72;;;13.67;67.15
57847;BME280;43675;50.030;21.952;2022-10-16T05:18:28;99183.92;;;13.70;67.07
57847;BME280;43675;50.030;21.952;2022-10-16T05:20:54;99186.98;;;13.73;67.00
57847;BME280;43675;50.030;21.952;2022-10-16T05:23:19;99191.11;;;13.76;66.95
57847;BME280;43675;50.030;21.952;2022-10-16T05:25:53;99186.02;;;13.77;66.89
57847;BME280;43675;50.030;21.952;2022-10-16T05:28:19;99190.75;;;13.82;66.79
57847;BME280;43675;50.030;21.952;2022-10-16T05:30:45;99192.72;;;13.84;66.78
57847;BME280;43675;50.030;21.952;2022-10-16T05:33:11;99187.39;;;13.86;66.68
57847;BME280;43675;50.030;21.952;2022-10-16T05:35:36;99192.64;;;13.90;66.57
57847;BME280;43675;50.030;21.952;2022-10-16T05:38:02;99200.28;;;13.93;66.52
57847;BME280;43675;50.030;21.952;2022-10-16T05:40:27;99203.98;;;13.99;66.49
57847;BME280;43675;50.030;21.952;2022-10-16T05:42:56;99203.06;;;14.05;66.40
57847;BME280;43675;50.030;21.952;2022-10-16T05:45:21;99208.11;;;14.10;66.32
57847;BME280;43675;50.030;21.952;2022-10-16T05:47:47;99203.67;;;14.16;66.18
57847;BME280;43675;50.030;21.952;2022-10-16T05:50:19;99203.31;;;14.21;66.00
57847;BME280;43675;50.030;21.952;2022-10-16T05:52:45;99207.27;;;14.28;65.82
57847;BME280;43675;50.030;21.952;2022-10-16T05:55:10;99211.30;;;14.35;65.72
57847;BME280;43675;50.030;21.952;2022-10-16T05:57:36;99218.27;;;14.42;65.58
57847;BME280;43675;50.030;21.952;2022-10-16T06:00:03;99220.36;;;14.49;65.39
57847;BME280;43675;50.030;21.952;2022-10-16T06:02:29;99219.68;;;14.54;65.21
57847;BME280;43675;50.030;21.952;2022-10-16T06:04:54;99228.38;;;14.56;65.06
57847;BME280;43675;50.030;21.952;2022-10-16T06:07:20;99227.08;;;14.58;64.99
57847;BME280;43675;50.030;21.952;2022-10-16T06:09:50;99234.75;;;14.61;64.96
57847;BME280;43675;50.030;21.952;2022-10-16T06:12:23;99231.07;;;14.65;64.87
57847;BME280;43675;50.030;21.952;2022-10-16T06:14:48;99234.35;;;14.67;64.82
57847;BME280;43675;50.030;21.952;2022-10-16T06:17:14;99236.91;;;14.71;64.68
57847;BME280;43675;50.030;21.952;2022-10-16T06:19:40;99243.20;;;14.74;64.58
57847;BME280;43675;50.030;21.952;2022-10-16T06:22:06;99243.34;;;14.79;64.45
57847;BME280;43675;50.030;21.952;2022-10-16T06:24:32;99245.67;;;14.85;64.30
57847;BME280;43675;50.030;21.952;2022-10-16T06:27:04;99246.41;;;14.92;64.12
57847;BME280;43675;50.030;21.952;2022-10-16T06:29:30;99254.72;;;14.99;63.92
57847;BME280;43675;50.030;21.952;2022-10-16T06:31:56;99248.17;;;15.07;63.76
57847;BME280;43675;50.030;21.952;2022-10-16T06:34:21;99258.72;;;15.18;63.51
57847;BME280;43675;50.030;21.952;2022-10-16T06:36:47;99263.36;;;15.29;63.28
57847;BME280;43675;50.030;21.952;2022-10-16T06:39:12;99267.37;;;15.38;63.07
57847;BME280;43675;50.030;21.952;2022-10-16T06:41:38;99267.34;;;15.47;62.86
57847;BME280;43675;50.030;21.952;2022-10-16T06:44:07;99268.70;;;15.56;62.54
57847;BME280;43675;50.030;21.952;2022-10-16T06:46:33;99274.05;;;15.65;62.40
57847;BME280;43675;50.030;21.952;2022-10-16T06:48:59;99279.73;;;15.75;62.16
57847;BME280;43675;50.030;21.952;2022-10-16T06:51:32;99284.55;;;15.85;61.98
57847;BME280;43675;50.030;21.952;2022-10-16T06:53:57;99285.34;;;15.94;61.85
57847;BME280;43675;50.030;21.952;2022-10-16T06:56:25;99286.09;;;16.04;61.74
57847;BME280;43675;50.030;21.952;2022-10-16T06:58:52;99278.98;;;16.12;61.56
57847;BME280;43675;50.030;21.952;2022-10-16T07:01:20;99281.86;;;16.20;61.37
57847;BME280;43675;50.030;21.952;2022-10-16T07:03:47;99283.94;;;16.27;61.13
57847;BME280;43675;50.030;21.952;2022-10-16T07:06:15;99281.10;;;16.33;60.89
57847;BME280;43675;50.030;21.952;2022-10-16T07:08:44;99279.91;;;16.41;60.57
57847;BME280;43675;50.030;21.952;2022-10-16T07:11:14;99283.13;;;16.52;60.30
57847;BME280;43675;50.030;21.952;2022-10-16T07:13:42;99283.67;;;16.63;60.06
57847;BME280;43675;50.030;21.952;2022-10-16T07:16:11;99287.37;;;16.71;59.75
57847;BME280;43675;50.030;21.952;2022-10-16T07:18:44;99293.47;;;16.78;59.42
57847;BME280;43675;50.030;21.952;2022-10-16T07:21:12;99295.81;;;16.86;59.20
57847;BME280;43675;50.030;21.952;2022-10-16T07:23:38;99297.09;;;16.95;58.99
57847;BME280;43675;50.030;21.952;2022-10-16T07:26:05;99295.73;;;17.10;58.61
57847;BME280;43675;50.030;21.952;2022-10-16T07:28:32;99290.86;;;17.23;58.34
57847;BME280;43675;50.030;21.952;2022-10-16T07:31:02;99295.17;;;17.36;57.87
57847;BME280;43675;50.030;21.952;2022-10-16T07:33:28;99301.90;;;17.47;57.65
57847;BME280;43675;50.030;21.952;2022-10-16T07:36:01;99303.39;;;17.55;57.49
57847;BME280;43675;50.030;21.952;2022-10-16T07:38:27;99307.03;;;17.61;57.22
57847;BME280;43675;50.030;21.952;2022-10-16T07:40:58;99304.91;;;17.63;56.96
57847;BME280;43675;50.030;21.952;2022-10-16T07:43:24;99312.76;;;17.62;56.81
57847;BME280;43675;50.030;21.952;2022-10-16T07:45:51;99311.83;;;17.56;56.60
57847;BME280;43675;50.030;21.952;2022-10-16T07:48:17;99312.56;;;17.52;56.59
57847;BME280;43675;50.030;21.952;2022-10-16T07:50:50;99316.23;;;17.45;56.50
57847;BME280;43675;50.030;21.952;2022-10-16T07:53:15;99313.48;;;17.43;56.43
57847;BME280;43675;50.030;21.952;2022-10-16T07:55:41;99319.97;;;17.42;56.38
57847;BME280;43675;50.030;21.952;2022-10-16T07:58:07;99320.75;;;17.40;56.38
57847;BME280;43675;50.030;21.952;2022-10-16T08:00:33;99318.57;;;17.39;56.20
57847;BME280;43675;50.030;21.952;2022-10-16T08:03:00;99313.18;;;17.42;56.24
57847;BME280;43675;50.030;21.952;2022-10-16T08:05:27;99319.01;;;17.48;56.09
57847;BME280;43675;50.030;21.952;2022-10-16T08:07:53;99322.39;;;17.55;56.00
57847;BME280;43675;50.030;21.952;2022-10-16T08:10:20;99322.78;;;17.61;55.78
57847;BME280;43675;50.030;21.952;2022-10-16T08:12:47;99321.83;;;17.67;55.49
57847;BME280;43675;50.030;21.952;2022-10-16T08:15:20;99327.92;;;17.74;55.50
57847;BME280;43675;50.030;21.952;2022-10-16T08:18:00;99328.91;;;17.85;55.54
57847;BME280;43675;50.030;21.952;2022-10-16T08:20:33;99325.29;;;17.96;55.34
57847;BME280;43675;50.030;21.952;2022-10-16T08:23:02;99328.52;;;18.10;55.21
57847;BME280;43675;50.030;21.952;2022-10-16T08:25:28;99330.41;;;18.26;54.97
57847;BME280;43675;50.030;21.952;2022-10-16T08:27:54;99329.83;;;18.43;54.75
57847;BME280;43675;50.030;21.952;2022-10-16T08:30:21;99333.70;;;18.64;54.15
57847;BME280;43675;50.030;21.952;2022-10-16T08:32:48;99334.55;;;18.86;53.95
57847;BME280;43675;50.030;21.952;2022-10-16T08:35:14;99331.33;;;19.11;53.37
57847;BME280;43675;50.030;21.952;2022-10-16T08:37:40;99334.00;;;19.30;52.82
57847;BME280;43675;50.030;21.952;2022-10-16T08:40:16;99328.27;;;19.48;52.30
57847;BME280;43675;50.030;21.952;2022-10-16T08:50:46;99334.84;;;19.52;51.14
57847;BME280;43675;50.030;21.952;2022-10-16T08:53:30;99339.39;;;19.47;51.14
57847;BME280;43675;50.030;21.952;2022-10-16T08:55:55;99318.86;;;19.36;50.95
57847;BME280;43675;50.030;21.952;2022-10-16T08:58:23;99318.86;;;19.36;50.95
57847;BME280;43675;50.030;21.952;2022-10-16T09:01:00;99333.66;;;19.46;50.92
57847;BME280;43675;50.030;21.952;2022-10-16T09:06:50;99338.70;;;19.56;50.56
57847;BME280;43675;50.030;21.952;2022-10-16T09:12:17;99336.73;;;19.78;50.37
57847;BME280;43675;50.030;21.952;2022-10-16T09:18:01;99335.03;;;20.04;49.62
57847;BME280;43675;50.030;21.952;2022-10-16T09:20:38;99347.34;;;20.07;49.41
57847;BME280;43675;50.030;21.952;2022-10-16T09:23:12;99356.64;;;20.11;49.06
57847;BME280;43675;50.030;21.952;2022-10-16T09:25:39;99350.95;;;20.15;48.80
57847;BME280;43675;50.030;21.952;2022-10-16T09:28:08;99355.63;;;20.22;48.86
57847;BME280;43675;50.030;21.952;2022-10-16T09:30:34;99357.38;;;20.31;48.34
57847;BME280;43675;50.030;21.952;2022-10-16T09:33:00;99366.69;;;20.37;48.12
57847;BME280;43675;50.030;21.952;2022-10-16T09:35:33;99358.80;;;20.38;47.78
57847;BME280;43675;50.030;21.952;2022-10-16T09:38:07;99358.50;;;20.35;47.84
57847;BME280;43675;50.030;21.952;2022-10-16T09:40:36;99353.20;;;20.25;47.83
57847;BME280;43675;50.030;21.952;2022-10-16T09:43:23;99352.86;;;20.17;47.93
57847;BME280;43675;50.030;21.952;2022-10-16T09:45:57;99353.33;;;20.06;48.03
57847;BME280;43675;50.030;21.952;2022-10-16T09:48:23;99359.73;;;19.93;48.23
57847;BME280;43675;50.030;21.952;2022-10-16T09:50:58;99361.53;;;19.79;49.23
57847;BME280;43675;50.030;21.952;2022-10-16T09:53:26;99362.02;;;19.76;49.01
57847;BME280;43675;50.030;21.952;2022-10-16T09:55:53;99357.09;;;19.73;48.82
57847;BME280;43675;50.030;21.952;2022-10-16T09:58:23;99359.80;;;19.71;48.63
57847;BME280;43675;50.030;21.952;2022-10-16T10:00:51;99357.38;;;19.72;48.66
57847;BME280;43675;50.030;21.952;2022-10-16T10:03:26;99348.92;;;19.73;48.77
57847;BME280;43675;50.030;21.952;2022-10-16T10:05:48;99365.03;;;19.77;48.66
57847;BME280;43675;50.030;21.952;2022-10-16T10:08:14;99365.34;;;19.81;48.62
57847;BME280;43675;50.030;21.952;2022-10-16T10:10:43;99360.20;;;19.84;48.48
57847;BME280;43675;50.030;21.952;2022-10-16T10:13:20;99365.94;;;19.88;48.58
57847;BME280;43675;50.030;21.952;2022-10-16T10:15:46;99366.25;;;19.92;48.50
57847;BME280;43675;50.030;21.952;2022-10-16T10:18:19;99368.49;;;19.97;48.30
57847;BME280;43675;50.030;21.952;2022-10-16T10:20:45;99373.17;;;20.02;48.31
57847;BME280;43675;50.030;21.952;2022-10-16T10:23:22;99366.67;;;20.08;48.09
57847;BME280;43675;50.030;21.952;2022-10-16T10:28:52;99365.12;;;20.17;47.86
57847;BME280;43675;50.030;21.952;2022-10-16T10:34:23;99367.02;;;20.16;47.86
57847;BME280;43675;50.030;21.952;2022-10-16T10:36:50;99366.72;;;20.13;47.65
57847;BME280;43675;50.030;21.952;2022-10-16T10:39:33;99363.39;;;20.03;47.76
57847;BME280;43675;50.030;21.952;2022-10-16T10:50:26;99355.63;;;19.90;48.16
57847;BME280;43675;50.030;21.952;2022-10-16T10:53:05;99352.44;;;19.98;48.19
57847;BME280;43675;50.030;21.952;2022-10-16T10:55:40;99352.50;;;20.06;47.97
57847;BME280;43675;50.030;21.952;2022-10-16T10:58:24;99343.31;;;20.14;47.76
57847;BME280;43675;50.030;21.952;2022-10-16T11:00:57;99348.52;;;20.18;47.49
57847;BME280;43675;50.030;21.952;2022-10-16T11:03:57;99337.92;;;20.22;47.51
57847;BME280;43675;50.030;21.952;2022-10-16T11:06:22;99343.13;;;20.26;47.33
57847;BME280;43675;50.030;21.952;2022-10-16T11:09:02;99346.41;;;20.28;47.26
57847;BME280;43675;50.030;21.952;2022-10-16T11:11:35;99332.02;;;20.30;47.23
57847;BME280;43675;50.030;21.952;2022-10-16T11:19:41;99334.81;;;20.43;46.98
57847;BME280;43675;50.030;21.952;2022-10-16T11:25:18;99341.91;;;20.44;46.72
57847;BME280;43675;50.030;21.952;2022-10-16T11:28:14;99346.58;;;20.46;46.52
57847;BME280;43675;50.030;21.952;2022-10-16T11:30:22;99342.73;;;20.44;46.55
57847;BME280;43675;50.030;21.952;2022-10-16T11:32:52;99346.58;;;20.48;46.36
57847;BME280;43675;50.030;21.952;2022-10-16T11:35:24;99342.78;;;20.52;46.38
57847;BME280;43675;50.030;21.952;2022-10-16T11:37:50;99349.61;;;20.54;45.97
57847;BME280;43675;50.030;21.952;2022-10-16T11:40:28;99337.34;;;20.54;46.10
57847;BME280;43675;50.030;21.952;2022-10-16T11:45:33;99344.16;;;20.54;45.96
57847;BME280;43675;50.030;21.952;2022-10-16T11:50:35;99340.39;;;20.58;45.75
57847;BME280;43675;50.030;21.952;2022-10-16T11:53:03;99339.02;;;20.58;45.65
57847;BME280;43675;50.030;21.952;2022-10-16T11:55:36;99344.19;;;20.57;45.62
57847;BME280;43675;50.030;21.952;2022-10-16T11:58:24;99347.20;;;20.58;45.44
57847;BME280;43675;50.030;21.952;2022-10-16T12:00:57;99341.75;;;20.58;45.67
57847;BME280;43675;50.030;21.952;2022-10-16T12:03:39;99340.93;;;20.60;45.56
57847;BME280;43675;50.030;21.952;2022-10-16T12:08:48;99334.69;;;20.64;45.57
57847;BME280;43675;50.030;21.952;2022-10-16T12:16:55;99318.62;;;20.70;45.37
57847;BME280;43675;50.030;21.952;2022-10-16T12:19:23;99329.03;;;20.73;45.28
57847;BME280;43675;50.030;21.952;2022-10-16T12:21:51;99334.23;;;20.78;45.27
57847;BME280;43675;50.030;21.952;2022-10-16T12:24:38;99331.25;;;20.82;45.36
57847;BME280;43675;50.030;21.952;2022-10-16T12:27:19;99337.83;;;20.86;45.46
57847;BME280;43675;50.030;21.952;2022-10-16T12:29:39;99320.91;;;20.89;45.25
57847;BME280;43675;50.030;21.952;2022-10-16T12:34:51;99319.02;;;20.94;45.08
57847;BME280;43675;50.030;21.952;2022-10-16T12:37:25;99320.41;;;20.97;45.13
57847;BME280;43675;50.030;21.952;2022-10-16T12:39:53;99325.61;;;21.01;45.04
57847;BME280;43675;50.030;21.952;2022-10-16T12:45:21;99325.86;;;21.02;44.84
57847;BME280;43675;50.030;21.952;2022-10-16T12:50:00;99329.70;;;21.01;44.69
57847;BME280;43675;50.030;21.952;2022-10-16T12:52:37;99330.53;;;21.04;44.77
57847;BME280;43675;50.030;21.952;2022-10-16T12:55:05;99331.35;;;21.07;44.71
57847;BME280;43675;50.030;21.952;2022-10-16T13:03:24;99338.97;;;21.02;44.43
57847;BME280;43675;50.030;21.952;2022-10-16T13:09:11;99344.36;;;20.85;44.62
57847;BME280;43675;50.030;21.952;2022-10-16T13:12:04;99340.48;;;20.73;44.54
57847;BME280;43675;50.030;21.952;2022-10-16T13:20:25;99347.41;;;20.46;44.74
57847;BME280;43675;50.030;21.952;2022-10-16T13:23:00;99348.39;;;20.35;44.95
57847;BME280;43675;50.030;21.952;2022-10-16T13:25:35;99348.83;;;20.24;45.02
57847;BME280;43675;50.030;21.952;2022-10-16T13:28:08;99352.61;;;20.18;45.08
57847;BME280;43675;50.030;21.952;2022-10-16T13:30:41;99350.38;;;20.15;45.08
57847;BME280;43675;50.030;21.952;2022-10-16T13:33:32;99351.69;;;20.08;45.69
57847;BME280;43675;50.030;21.952;2022-10-16T13:35:53;99346.82;;;20.12;45.50
57847;BME280;43675;50.030;21.952;2022-10-16T13:38:22;99355.28;;;20.11;45.45
57847;BME280;43675;50.030;21.952;2022-10-16T13:40:53;99352.52;;;20.08;45.38
57847;BME280;43675;50.030;21.952;2022-10-16T13:46:06;99360.67;;;20.06;45.53
57847;BME280;43675;50.030;21.952;2022-10-16T13:48:33;99360.09;;;20.04;45.71
57847;BME280;43675;50.030;21.952;2022-10-16T13:51:16;99359.02;;;20.02;45.59
57847;BME280;43675;50.030;21.952;2022-10-16T13:53:43;99361.20;;;20.03;45.64
57847;BME280;43675;50.030;21.952;2022-10-16T13:56:14;99365.52;;;19.99;45.66
57847;BME280;43675;50.030;21.952;2022-10-16T13:58:41;99363.63;;;19.99;45.55
57847;BME280;43675;50.030;21.952;2022-10-16T14:01:28;99371.22;;;19.97;45.62
57847;BME280;43675;50.030;21.952;2022-10-16T14:04:00;99373.66;;;19.96;45.69
57847;BME280;43675;50.030;21.952;2022-10-16T14:06:24;99383.42;;;19.92;45.73
57847;BME280;43675;50.030;21.952;2022-10-16T14:08:55;99376.59;;;19.90;45.67
57847;BME280;43675;50.030;21.952;2022-10-16T14:11:26;99383.93;;;19.87;45.66
57847;BME280;43675;50.030;21.952;2022-10-16T14:13:53;99366.34;;;19.72;45.85
57847;BME280;43675;50.030;21.952;2022-10-16T14:16:21;99377.23;;;19.72;45.94
57847;BME280;43675;50.030;21.952;2022-10-16T14:18:57;99372.82;;;19.66;46.01
57847;BME280;43675;50.030;21.952;2022-10-16T14:21:20;99382.74;;;19.53;46.30
57847;BME280;43675;50.030;21.952;2022-10-16T14:23:45;99382.74;;;19.53;46.30
57847;BME280;43675;50.030;21.952;2022-10-16T14:26:14;99379.94;;;19.46;46.26
57847;BME280;43675;50.030;21.952;2022-10-16T14:28:41;99389.11;;;19.40;46.42
57847;BME280;43675;50.030;21.952;2022-10-16T14:33:48;99386.20;;;19.24;46.81
57847;BME280;43675;50.030;21.952;2022-10-16T14:36:16;99387.95;;;19.14;47.06
57847;BME280;43675;50.030;21.952;2022-10-16T14:41:31;99386.98;;;19.01;47.32